Time;durP1;ratioP1;P1;durP2;ratioP2;P2;SDS_P1;SDS_P2;PMS_P1;PMS_P2;Temp;Humidity;BMP_temperature;BMP_pressure;BME280_temperature;BME280_humidity;BME280_pressure;Samples;Min_cycle;Max_cycle;Signal;HPM_P1;HPM_P2
2022/04/01 00:02:23;;;;;;;65.93;27.80;;;;;;;7.72;49.49;98847.47;5061588;28;20058;-70
2022/04/01 00:04:50;;;;;;;53.17;25.40;;;;;;;7.62;49.40;98837.03;5077755;28;20138;-70
2022/04/01 00:07:16;;;;;;;52.27;25.27;;;;;;;7.69;49.47;98840.66;5095159;28;20180;-69
2022/04/01 00:09:42;;;;;;;56.03;25.10;;;;;;;7.62;49.52;98837.03;5077512;28;20504;-72
2022/04/01 00:12:09;;;;;;;46.40;23.20;;;;;;;7.71;49.61;98836.06;5059996;28;20069;-71
2022/04/01 00:14:36;;;;;;;54.97;24.60;;;;;;;7.70;49.58;98833.56;5076106;28;20189;-70
2022/04/01 00:17:06;;;;;;;47.67;22.63;;;;;;;7.73;49.46;98836.75;5077051;28;20100;-71
2022/04/01 00:19:32;;;;;;;51.50;23.97;;;;;;;7.66;49.74;98827.78;5076121;28;20109;-71
2022/04/01 00:21:58;;;;;;;48.33;23.23;;;;;;;7.67;49.64;98832.06;5058947;28;20055;-71
2022/04/01 00:24:24;;;;;;;48.60;23.03;;;;;;;7.74;49.46;98826.97;5092720;28;20131;-72
2022/04/01 00:26:50;;;;;;;57.20;23.80;;;;;;;7.66;49.32;98830.41;5092616;28;20043;-70
2022/04/01 00:29:17;;;;;;;62.27;24.90;;;;;;;7.75;49.41;98837.38;5077622;28;20144;-71
2022/04/01 00:31:46;;;;;;;63.47;24.87;;;;;;;7.76;49.29;98843.50;5060893;28;20496;-71
2022/04/01 00:34:15;;;;;;;57.60;24.93;;;;;;;7.77;49.24;98827.50;5077525;28;20496;-71
2022/04/01 00:36:42;;;;;;;47.13;24.20;;;;;;;7.82;49.38;98829.66;5077891;28;20043;-72
2022/04/01 00:39:09;;;;;;;47.30;23.73;;;;;;;7.73;49.48;98843.84;5077715;28;20465;-70
2022/04/01 00:41:34;;;;;;;43.03;23.70;;;;;;;7.74;49.22;98848.13;5077437;28;20049;-70
2022/04/01 00:44:21;;;;;;;44.30;22.53;;;;;;;8.00;48.82;98830.38;5060651;28;20039;-70
2022/04/01 00:46:50;;;;;;;41.70;21.70;;;;;;;7.65;49.26;98804.16;5078136;28;20036;-71
2022/04/01 00:49:17;;;;;;;42.03;23.13;;;;;;;7.69;49.23;98842.47;5077339;28;20039;-71
2022/04/01 00:51:46;;;;;;;45.63;22.27;;;;;;;7.56;49.28;98821.81;5077552;28;20054;-71
2022/04/01 00:54:12;;;;;;;41.33;22.27;;;;;;;7.61;49.47;98834.53;5111028;28;20130;-71
2022/04/01 00:56:38;;;;;;;41.93;21.33;;;;;;;7.59;49.53;98845.25;5060715;28;20452;-71
2022/04/01 00:59:06;;;;;;;46.63;21.63;;;;;;;7.64;49.59;98850.88;5060391;28;20042;-71
2022/04/01 01:01:35;;;;;;;38.57;20.23;;;;;;;7.66;49.57;98848.09;5060570;28;20043;-71
2022/04/01 01:04:03;;;;;;;42.17;20.97;;;;;;;7.66;49.79;98853.38;5094534;28;20059;-71
2022/04/01 01:06:31;;;;;;;37.13;19.87;;;;;;;7.67;49.61;98857.69;5076937;28;20104;-71
2022/04/01 01:08:59;;;;;;;36.33;20.67;;;;;;;7.61;49.93;98863.59;5093575;28;20035;-71
2022/04/01 01:11:26;;;;;;;42.83;21.87;;;;;;;7.50;50.16;98858.59;5092420;28;20039;-72
2022/04/01 01:13:54;;;;;;;43.57;21.00;;;;;;;7.59;49.73;98855.00;5075171;28;20432;-72
2022/04/01 01:16:20;;;;;;;39.67;20.57;;;;;;;7.47;49.79;98854.47;5092685;28;20035;-72
2022/04/01 01:18:59;;;;;;;41.23;21.57;;;;;;;7.70;49.89;98852.06;5058519;28;20161;-71
2022/04/01 01:21:26;;;;;;;39.17;20.63;;;;;;;7.42;49.93;98855.91;5092531;28;20062;-73
2022/04/01 01:24:05;;;;;;;40.97;20.90;;;;;;;7.65;49.78;98854.38;5075381;28;20147;-71
2022/04/01 01:26:35;;;;;;;36.27;18.83;;;;;;;7.72;49.74;98865.97;5076502;28;20048;-71
2022/04/01 01:29:04;;;;;;;43.90;18.88;;;;;;;7.57;49.99;98862.25;5075456;28;20035;-71
2022/04/01 01:31:30;;;;;;;41.53;20.00;;;;;;;7.44;50.25;98857.38;5093687;28;20575;-72
2022/04/01 01:33:58;;;;;;;38.13;20.07;;;;;;;7.57;49.77;98857.81;5093147;28;20032;-71
2022/04/01 01:36:26;;;;;;;41.53;18.43;;;;;;;7.57;49.93;98859.59;5111489;28;20044;-71
2022/04/01 01:38:52;;;;;;;46.87;19.07;;;;;;;7.41;49.95;98856.91;5109958;28;20127;-73
2022/04/01 01:41:20;;;;;;;34.73;18.37;;;;;;;7.36;50.02;98864.44;5076271;28;20464;-71
2022/04/01 01:43:46;;;;;;;36.77;18.67;;;;;;;7.25;50.36;98868.19;5076629;28;20043;-72
2022/04/01 01:46:12;;;;;;;37.33;17.60;;;;;;;7.13;50.66;98858.03;5109576;28;20050;-71
2022/04/01 01:48:38;;;;;;;35.00;19.33;;;;;;;7.19;50.50;98866.19;5091121;28;20418;-75
2022/04/01 01:56:35;;;;;;;33.67;17.90;;;;;;;7.13;50.38;98869.44;5076092;28;20039;-73
2022/04/01 01:59:02;;;;;;;32.40;17.93;;;;;;;7.06;50.50;98862.28;5090762;28;20051;-72
2022/04/01 02:01:28;;;;;;;35.53;17.90;;;;;;;7.06;50.50;98875.50;5073666;28;20046;-72
2022/04/01 02:03:54;;;;;;;37.80;18.37;;;;;;;6.97;50.72;98865.84;5075826;28;20035;-71
2022/04/01 02:06:23;;;;;;;35.40;17.47;;;;;;;7.06;50.74;98868.38;5075872;28;20035;-71
2022/04/01 02:08:50;;;;;;;32.80;16.73;;;;;;;6.92;50.45;98841.72;5075758;28;20420;-72
2022/04/01 02:11:17;;;;;;;34.77;18.73;;;;;;;7.11;50.45;98874.03;5075829;28;20054;-72
2022/04/01 02:13:45;;;;;;;39.80;19.70;;;;;;;7.09;50.55;98872.53;5092807;28;20039;-74
2022/04/01 02:16:13;;;;;;;38.57;17.90;;;;;;;6.99;51.11;98882.34;5110110;28;20050;-73
2022/04/01 02:18:41;;;;;;;34.40;17.93;;;;;;;6.90;51.05;98866.44;5092833;28;20054;-73
2022/04/01 02:21:10;;;;;;;35.90;18.53;;;;;;;6.84;51.03;98874.97;5092398;28;20063;-74
2022/04/01 02:23:38;;;;;;;37.30;19.50;;;;;;;6.93;51.28;98879.34;5093272;28;20496;-73
2022/04/01 02:26:06;;;;;;;38.97;20.00;;;;;;;6.81;51.43;98883.22;5093104;28;20597;-71
2022/04/01 02:28:34;;;;;;;39.63;20.80;;;;;;;7.10;50.92;98879.47;5109934;28;20048;-73
2022/04/01 02:31:04;;;;;;;37.53;20.17;;;;;;;7.00;50.65;98878.72;5092750;28;20047;-73
2022/04/01 02:33:48;;;;;;;38.00;18.87;;;;;;;6.76;50.47;98845.88;5080964;28;20385;-72
2022/04/01 02:36:14;;;;;;;42.13;19.50;;;;;;;6.98;50.54;98881.53;5075531;28;20103;-72
2022/04/01 02:38:41;;;;;;;39.80;20.27;;;;;;;7.06;50.39;98878.94;5092445;28;20039;-71
2022/04/01 02:41:08;;;;;;;40.23;21.77;;;;;;;7.05;50.67;98890.50;5079711;28;20055;-71
2022/04/01 02:43:35;;;;;;;44.27;21.37;;;;;;;6.99;50.76;98877.06;5079818;28;20051;-71
2022/04/01 02:46:02;;;;;;;46.40;22.27;;;;;;;7.04;50.47;98882.72;5061736;28;20043;-72
2022/04/01 02:48:29;;;;;;;39.57;21.00;;;;;;;6.96;50.67;98887.94;5078311;28;20040;-71
2022/04/01 02:51:17;;;;;;;38.53;21.17;;;;;;;6.85;50.59;98884.59;5072486;28;20055;-73
2022/04/01 02:53:45;;;;;;;41.40;20.20;;;;;;;6.85;50.85;98881.94;5062148;28;20096;-73
2022/04/01 02:56:11;;;;;;;35.93;20.17;;;;;;;6.86;50.51;98878.31;5061386;28;20043;-72
2022/04/01 02:58:37;;;;;;;42.40;20.07;;;;;;;6.93;50.56;98897.81;5078092;28;20836;-71
2022/04/01 03:01:03;;;;;;;35.30;18.70;;;;;;;6.85;50.49;98892.50;5078297;28;20047;-72
2022/04/01 03:03:30;;;;;;;39.67;19.67;;;;;;;6.83;50.80;98886.53;5079279;28;20093;-73
2022/04/01 03:05:58;;;;;;;40.40;19.63;;;;;;;6.93;50.51;98893.53;5096273;28;20058;-73
2022/04/01 03:08:26;;;;;;;40.43;20.03;;;;;;;6.77;50.62;98868.66;5079536;28;20047;-69
2022/04/01 03:10:54;;;;;;;38.60;20.10;;;;;;;6.93;50.43;98897.00;5062789;28;20475;-68
2022/04/01 03:13:20;;;;;;;33.83;19.50;;;;;;;6.85;50.59;98884.59;5079059;28;20195;-71
2022/04/01 03:16:04;;;;;;;43.47;20.90;;;;;;;6.93;50.82;98909.38;5088348;28;20492;-69
2022/04/01 03:18:43;;;;;;;42.00;20.73;;;;;;;6.92;50.38;98905.09;5112808;28;20159;-67
2022/04/01 03:21:10;;;;;;;42.47;19.85;;;;;;;7.04;50.55;98898.56;5096150;28;20090;-69
2022/04/01 03:23:43;;;;;;;40.25;19.40;;;;;;;6.90;50.70;98892.03;5095050;28;20039;-68
2022/04/01 03:26:12;;;;;;;34.97;18.90;;;;;;;6.93;50.84;98907.56;5094805;28;20040;-68
2022/04/01 03:28:55;;;;;;;40.90;20.57;;;;;;;6.96;50.57;98912.53;5111129;28;20561;-67
2022/04/01 03:31:25;;;;;;;37.13;19.27;;;;;;;6.85;50.91;98910.97;5093714;28;20077;-67
2022/04/01 03:33:51;;;;;;;37.93;18.93;;;;;;;6.89;50.84;98907.03;5076227;28;20035;-68
2022/04/01 03:36:18;;;;;;;44.83;19.77;;;;;;;7.01;50.69;98909.44;5093597;28;20031;-68
2022/04/01 03:38:48;;;;;;;39.20;18.48;;;;;;;6.97;50.77;98910.72;5111519;28;20127;-69
2022/04/01 03:41:24;;;;;;;38.17;17.97;;;;;;;6.93;50.66;98914.66;5078960;28;20093;-72
2022/04/01 03:43:54;;;;;;;41.77;19.20;;;;;;;6.88;50.93;98915.94;5075184;28;20039;-71
2022/04/01 03:46:24;;;;;;;36.10;18.03;;;;;;;6.95;51.08;98904.78;5091325;28;20040;-71
2022/04/01 03:49:02;;;;;;;39.90;17.80;;;;;;;6.81;51.15;98929.91;5109852;28;20066;-72
2022/04/01 03:51:30;;;;;;;39.40;18.63;;;;;;;6.94;51.40;98914.50;5091324;28;20077;-73
2022/04/01 03:53:58;;;;;;;37.20;17.00;;;;;;;6.92;51.34;98916.44;5125346;27;20142;-72
2022/04/01 03:56:37;;;;;;;37.83;18.27;;;;;;;6.90;51.18;98913.97;5093035;28;20519;-73
2022/04/01 03:59:42;;;;;;;43.90;18.77;;;;;;;6.92;51.23;98913.81;5083587;28;20093;-72
2022/04/01 04:02:34;;;;;;;34.30;16.23;;;;;;;6.87;50.97;98892.34;5085731;28;20536;-66
2022/04/01 04:05:07;;;;;;;37.75;16.77;;;;;;;7.02;50.98;98911.91;5091588;28;20035;-66
2022/04/01 04:07:33;;;;;;;32.17;15.93;;;;;;;6.81;51.13;98911.44;5108601;28;20071;-66
2022/04/01 04:10:07;;;;;;;28.98;15.57;;;;;;;6.97;50.87;98913.34;5125223;27;20039;-66
2022/04/01 04:12:40;;;;;;;28.83;15.37;;;;;;;6.92;51.01;98910.34;5055882;28;20154;-65
2022/04/01 04:15:07;;;;;;;32.10;18.67;;;;;;;6.73;50.88;98891.06;5107579;28;20040;-65
2022/04/01 04:17:37;;;;;;;30.13;16.47;;;;;;;7.13;50.65;98916.13;5107431;28;20039;-65
2022/04/01 04:20:19;;;;;;;30.60;16.75;;;;;;;7.13;50.73;98902.94;5107792;28;20071;-66
2022/04/01 04:22:52;;;;;;;28.47;14.40;;;;;;;6.83;50.71;98877.78;5075250;28;20052;-65
2022/04/01 04:25:24;;;;;;;28.07;15.27;;;;;;;7.09;50.49;98917.44;5107658;28;20084;-64
2022/04/01 04:27:59;;;;;;;28.17;15.27;;;;;;;7.14;50.43;98915.97;5106168;28;20043;-64
2022/04/01 04:30:36;;;;;;;28.10;14.80;;;;;;;7.18;50.71;98932.34;5107356;28;20040;-64
2022/04/01 04:33:28;;;;;;;26.57;14.07;;;;;;;7.13;50.16;98909.03;5107208;28;20047;-65
2022/04/01 04:36:00;;;;;;;28.60;13.70;;;;;;;7.18;49.96;98922.59;5073735;28;20043;-64
2022/04/01 04:38:29;;;;;;;24.57;13.90;;;;;;;7.26;49.93;98933.22;5092923;28;20444;-64
2022/04/01 04:40:56;;;;;;;24.20;13.33;;;;;;;7.10;49.96;98934.91;5075989;28;20551;-64
2022/04/01 04:43:23;;;;;;;23.57;13.70;;;;;;;7.12;49.90;98939.06;5075637;28;20079;-65
2022/04/01 04:45:52;;;;;;;26.47;14.03;;;;;;;7.31;49.58;98936.22;5110752;28;20039;-64
2022/04/01 04:48:28;;;;;;;26.13;13.43;;;;;;;7.33;49.53;98947.47;5107274;28;20131;-64
2022/04/01 04:50:59;;;;;;;29.20;14.33;;;;;;;7.24;49.45;98935.22;5090766;28;20047;-64
2022/04/01 04:53:27;;;;;;;29.07;16.70;;;;;;;7.34;49.38;98948.28;5107176;28;20049;-64
2022/04/01 04:55:53;;;;;;;22.77;12.93;;;;;;;7.31;49.04;98951.25;5107011;28;20067;-64
2022/04/01 04:58:29;;;;;;;26.15;14.55;;;;;;;7.44;49.22;98963.06;5090750;28;20044;-64
2022/04/01 05:01:03;;;;;;;27.13;13.17;;;;;;;7.56;48.95;98966.28;5106808;28;20044;-65
2022/04/01 05:03:47;;;;;;;25.87;13.97;;;;;;;7.55;49.07;98973.38;5108972;28;20179;-64
2022/04/01 05:06:17;;;;;;;27.67;13.93;;;;;;;7.48;49.19;98968.88;5093355;28;20466;-64
2022/04/01 05:09:15;;;;;;;34.43;17.90;;;;;;;7.37;49.38;98961.19;5080660;28;20062;-64
2022/04/01 05:12:08;;;;;;;28.03;15.03;;;;;;;7.55;48.96;98964.63;5108929;28;20434;-64
2022/04/01 05:15:08;;;;;;;23.37;13.50;;;;;;;7.32;48.96;98937.06;5096631;28;20100;-64
2022/04/01 05:17:46;;;;;;;28.37;13.60;;;;;;;7.59;48.87;98971.25;5092311;28;20055;-64
2022/04/01 05:20:16;;;;;;;21.03;12.27;;;;;;;7.51;49.03;98972.03;5109349;28;20055;-64
2022/04/01 05:23:07;;;;;;;21.30;11.97;;;;;;;7.48;48.81;98967.06;5092679;28;20051;-64
2022/04/01 05:25:40;;;;;;;22.20;12.20;;;;;;;7.54;48.71;98984.09;5109075;28;20574;-64
2022/04/01 05:28:24;;;;;;;26.03;12.67;;;;;;;7.38;48.73;98957.59;5093332;28;20044;-64
2022/04/01 05:31:07;;;;;;;22.77;12.47;;;;;;;7.61;48.51;98979.88;5092546;28;20051;-64
2022/04/01 05:33:41;;;;;;;41.73;15.00;;;;;;;7.53;48.51;98961.31;5074875;28;20071;-64
2022/04/01 05:36:10;;;;;;;32.03;14.13;;;;;;;7.56;48.66;98979.50;5074976;28;20088;-64
2022/04/01 05:38:36;;;;;;;32.43;13.43;;;;;;;7.66;48.22;98973.13;5109909;28;20059;-64
2022/04/01 05:41:02;;;;;;;19.93;12.80;;;;;;;7.63;47.83;98972.59;5091172;28;20043;-65
2022/04/01 05:43:28;;;;;;;22.97;12.57;;;;;;;7.77;47.65;98977.31;5074923;28;20493;-64
2022/04/01 05:46:12;;;;;;;25.90;13.27;;;;;;;7.61;47.58;98946.31;5110725;28;20035;-65
2022/04/01 05:48:39;;;;;;;22.83;12.77;;;;;;;7.82;47.49;98977.69;5091691;28;20067;-65
2022/04/01 05:51:05;;;;;;;20.10;12.13;;;;;;;7.84;47.57;98967.78;5108704;28;20515;-65
2022/04/01 05:53:36;;;;;;;29.73;13.75;;;;;;;7.95;47.34;98978.91;5075626;28;20073;-65
2022/04/01 05:56:02;;;;;;;19.33;11.23;;;;;;;7.77;47.05;98964.09;5092053;28;20108;-65
2022/04/01 05:58:29;;;;;;;18.73;10.90;;;;;;;7.71;47.13;98959.44;5091996;28;20128;-64
2022/04/01 06:01:17;;;;;;;22.07;10.60;;;;;;;8.04;46.82;98980.59;5108377;28;20119;-66
2022/04/01 06:04:07;;;;;;;20.43;13.07;;;;;;;8.13;46.57;98982.28;5091503;28;20050;-62
2022/04/01 06:06:40;;;;;;;21.60;10.30;;;;;;;8.10;46.52;98987.09;5108391;28;20134;-63
2022/04/01 06:10:00;;;;;;;20.10;10.73;;;;;;;8.17;46.39;98988.09;5091400;28;20035;-67
2022/04/01 06:13:24;;;;;;;17.03;9.07;;;;;;;7.92;46.35;98952.78;5012259;28;20132;-65
2022/04/01 06:16:39;;;;;;;15.17;8.07;;;;;;;7.89;46.04;98958.38;4944425;28;20117;-66
2022/04/01 06:19:23;;;;;;;12.87;7.93;;;;;;;7.85;46.23;98983.50;4973453;28;20415;-65
2022/04/01 06:21:59;;;;;;;15.23;8.97;;;;;;;8.13;46.19;98981.47;5068075;28;20150;-66
2022/04/01 06:24:29;;;;;;;15.63;8.77;;;;;;;8.03;46.06;98978.94;5091424;28;20043;-66
2022/04/01 06:26:58;;;;;;;13.87;8.03;;;;;;;8.04;45.99;98979.78;5092739;28;20039;-66
2022/04/01 06:29:37;;;;;;;16.00;9.27;;;;;;;8.21;45.61;98984.16;5074298;28;20416;-68
2022/04/01 06:32:05;;;;;;;20.50;9.47;;;;;;;8.03;45.62;98954.31;5107454;28;20056;-64
2022/04/01 06:34:50;;;;;;;17.37;8.60;;;;;;;8.36;45.28;98983.41;5107930;28;20130;-65
2022/04/01 06:37:42;;;;;;;15.90;9.33;;;;;;;8.33;45.04;98961.75;5107634;28;20635;-65
2022/04/01 06:40:11;;;;;;;20.93;10.47;;;;;;;8.40;45.11;98978.63;5091211;28;20039;-67
2022/04/01 06:42:45;;;;;;;18.07;9.40;;;;;;;8.14;45.05;98983.13;5091851;28;20527;-65
2022/04/01 06:45:32;;;;;;;18.83;9.10;;;;;;;8.33;45.06;98996.16;5107966;28;20039;-65
2022/04/01 06:48:18;;;;;;;20.17;9.57;;;;;;;8.25;44.95;98996.94;5107591;28;20100;-65
2022/04/01 06:51:08;;;;;;;16.27;9.93;;;;;;;8.40;44.57;98994.50;5109079;28;20061;-65
2022/04/01 06:53:54;;;;;;;17.43;9.37;;;;;;;8.33;44.62;98986.38;5063347;28;20504;-64
2022/04/01 06:56:46;;;;;;;13.37;7.83;;;;;;;8.16;44.66;98970.59;5071629;28;20047;-64
2022/04/01 06:59:13;;;;;;;13.43;8.17;;;;;;;8.09;44.59;98965.09;5090678;28;20465;-65
2022/04/01 07:01:39;;;;;;;12.40;7.57;;;;;;;8.24;44.67;98984.69;5107880;28;20040;-65
2022/04/01 07:04:04;;;;;;;16.27;8.83;;;;;;;8.36;44.64;98995.84;5074483;28;20042;-64
2022/04/01 07:06:30;;;;;;;16.00;8.47;;;;;;;8.50;44.25;98995.22;5090707;28;20039;-64
2022/04/01 07:08:56;;;;;;;12.93;8.97;;;;;;;8.41;44.17;98980.31;5109283;28;20035;-65
2022/04/01 07:11:25;;;;;;;10.17;7.73;;;;;;;8.62;44.02;98986.00;5107421;28;20039;-65
2022/04/01 07:13:53;;;;;;;15.07;7.87;;;;;;;8.45;43.84;98961.31;5108939;28;20036;-64
2022/04/01 07:16:19;;;;;;;13.10;8.20;;;;;;;8.64;43.71;98991.97;5108101;28;20043;-65
2022/04/01 07:18:44;;;;;;;18.00;10.23;;;;;;;8.63;43.67;98989.44;5090393;28;20039;-64
2022/04/01 07:21:10;;;;;;;11.57;7.47;;;;;;;8.56;43.65;98960.19;5090495;28;20116;-65
2022/04/01 07:23:37;;;;;;;11.43;7.80;;;;;;;8.60;43.98;98985.31;5107935;28;20077;-65
2022/04/01 07:26:03;;;;;;;10.30;7.13;;;;;;;8.73;43.47;98977.75;5111285;28;20248;-66
2022/04/01 07:28:28;;;;;;;13.03;8.37;;;;;;;8.58;43.47;98985.47;5077666;28;20108;-65
2022/04/01 07:30:55;;;;;;;12.57;8.17;;;;;;;8.72;43.14;98980.56;5111543;28;20092;-65
2022/04/01 07:33:21;;;;;;;9.97;6.70;;;;;;;8.49;43.39;98961.78;5094106;28;20040;-65
2022/04/01 07:35:47;;;;;;;12.33;7.50;;;;;;;8.77;43.25;98989.66;5077485;28;20054;-65
2022/04/01 07:38:14;;;;;;;9.37;6.87;;;;;;;8.75;43.11;98991.63;5093860;28;20108;-66
2022/04/01 07:40:39;;;;;;;8.83;6.33;;;;;;;8.64;43.23;98984.03;5128071;27;20150;-65
2022/04/01 07:43:05;;;;;;;11.40;6.40;;;;;;;8.65;43.12;98984.81;5109929;28;20127;-65
2022/04/01 07:45:34;;;;;;;12.27;7.40;;;;;;;8.56;43.05;98973.41;5094138;28;20046;-65
2022/04/01 07:48:01;;;;;;;9.73;6.40;;;;;;;8.79;42.58;98997.44;5111096;28;20187;-64
2022/04/01 07:50:27;;;;;;;10.80;6.37;;;;;;;8.86;42.48;98998.44;5094210;28;20488;-65
2022/04/01 07:52:53;;;;;;;11.20;6.60;;;;;;;8.75;42.48;98994.28;5077505;28;20048;-65
2022/04/01 07:55:19;;;;;;;11.30;6.80;;;;;;;8.85;42.70;98992.34;5094323;28;20032;-65
2022/04/01 07:57:46;;;;;;;9.93;6.33;;;;;;;9.01;42.46;98987.03;5093717;28;20078;-65
2022/04/01 08:00:13;;;;;;;10.57;6.03;;;;;;;9.05;42.15;98984.91;5094104;28;20371;-65
2022/04/01 08:02:39;;;;;;;7.50;5.13;;;;;;;9.05;41.73;98990.19;5110300;28;20051;-64
2022/04/01 08:05:06;;;;;;;10.03;6.17;;;;;;;9.03;41.31;98957.75;5093847;28;20123;-65
2022/04/01 08:07:32;;;;;;;8.00;5.40;;;;;;;9.22;41.28;98995.38;5093741;28;20035;-65
2022/04/01 08:09:58;;;;;;;7.27;4.97;;;;;;;9.30;40.96;98981.28;5112221;28;20048;-65
2022/04/01 08:12:24;;;;;;;9.50;5.83;;;;;;;9.34;40.58;98982.59;5076022;28;20120;-65
2022/04/01 08:14:50;;;;;;;10.75;6.13;;;;;;;9.46;40.21;98986.56;5076953;28;20040;-65
2022/04/01 08:17:15;;;;;;;8.25;5.50;;;;;;;9.61;40.01;98991.03;5094207;28;20043;-65
2022/04/01 08:19:43;;;;;;;10.60;6.05;;;;;;;9.74;39.43;98998.47;5076635;28;20051;-65
2022/04/01 08:22:09;;;;;;;10.17;5.77;;;;;;;9.70;39.47;98975.94;5077464;28;20058;-65
2022/04/01 08:24:35;;;;;;;8.88;5.50;;;;;;;9.80;39.19;98998.63;5093454;28;20093;-65
2022/04/01 08:27:01;;;;;;;7.18;5.03;;;;;;;9.94;39.15;99008.56;5110756;28;20047;-65
2022/04/01 08:29:27;;;;;;;7.10;5.30;;;;;;;9.91;39.08;99000.94;5093467;28;20050;-65
2022/04/01 08:31:54;;;;;;;9.60;5.55;;;;;;;10.02;39.22;99016.47;5110967;28;20069;-66
2022/04/01 08:34:20;;;;;;;9.10;5.65;;;;;;;10.00;39.04;99015.84;5093193;28;20412;-65
2022/04/01 08:36:46;;;;;;;6.78;4.90;;;;;;;9.95;38.80;99002.25;5109750;28;20054;-65
2022/04/01 08:39:12;;;;;;;9.10;4.55;;;;;;;9.93;38.01;99001.56;5111263;28;20470;-65
2022/04/01 08:41:38;;;;;;;11.10;4.60;;;;;;;10.10;37.89;99010.38;5110110;28;20521;-64
2022/04/01 08:44:04;;;;;;;5.82;4.18;;;;;;;10.29;37.42;99011.81;5109935;28;20519;-65
2022/04/01 08:46:31;;;;;;;8.38;4.32;;;;;;;10.42;37.04;99010.25;5093149;28;20056;-65
2022/04/01 08:48:56;;;;;;;8.80;4.25;;;;;;;10.58;36.76;99017.31;5059781;28;20051;-65
2022/04/01 08:51:22;;;;;;;6.82;5.00;;;;;;;10.69;36.69;98999.16;5093022;28;20378;-66
2022/04/01 08:53:48;;;;;;;9.15;4.47;;;;;;;11.12;35.72;99003.03;5093243;28;20078;-65
2022/04/01 08:56:19;;;;;;;8.27;5.30;;;;;;;11.78;35.04;99003.19;5110360;28;20449;-65
2022/04/01 08:58:45;;;;;;;8.00;4.20;;;;;;;12.03;34.20;98978.00;5110100;28;20088;-65
2022/04/01 09:01:12;;;;;;;6.43;4.20;;;;;;;12.32;33.55;99006.44;5059672;28;20070;-65
2022/04/01 09:03:38;;;;;;;8.10;4.40;;;;;;;12.47;32.78;99013.41;5093130;28;20128;-65
2022/04/01 09:06:06;;;;;;;6.53;3.75;;;;;;;12.62;32.54;99005.41;5110403;28;20040;-65
2022/04/01 09:08:37;;;;;;;8.75;4.38;;;;;;;12.78;32.26;99010.50;5076374;28;20039;-65
2022/04/01 09:11:09;;;;;;;7.10;4.53;;;;;;;12.89;32.13;98976.22;5075728;28;20040;-66
2022/04/01 09:13:46;;;;;;;;;;;;;;;13.30;31.30;98995.94;5092453;28;20066;-65
2022/04/01 09:16:27;;;;;;;12.50;7.03;;;;;;;13.66;30.86;98995.03;5076179;28;19930;-65
2022/04/01 09:18:55;;;;;;;8.25;5.60;;;;;;;13.98;30.40;98999.78;5109873;28;20055;-66
2022/04/01 09:21:36;;;;;;;5.70;4.03;;;;;;;14.36;29.69;98993.91;5126524;27;20108;-67
2022/04/01 09:24:03;;;;;;;5.65;3.95;;;;;;;13.99;29.67;98954.19;5108947;28;20047;-65
2022/04/01 09:26:31;;;;;;;7.80;4.05;;;;;;;14.09;29.32;98986.72;5109214;28;20043;-65
2022/04/01 09:28:57;;;;;;;7.13;3.75;;;;;;;13.95;29.60;98984.16;5109061;28;20461;-65
2022/04/01 09:31:25;;;;;;;7.85;5.07;;;;;;;13.81;29.65;98985.09;5108717;28;20174;-66
2022/04/01 09:33:53;;;;;;;8.45;5.38;;;;;;;14.32;29.76;98994.50;5092196;28;20071;-65
2022/04/01 09:36:33;;;;;;;10.18;6.22;;;;;;;14.70;28.98;98982.31;5092107;28;20457;-65
2022/04/01 09:39:05;;;;;;;7.40;4.82;;;;;;;14.71;28.77;98976.81;5108877;28;20066;-65
2022/04/01 09:41:31;;;;;;;6.43;4.15;;;;;;;14.35;28.81;98983.41;5108661;28;20051;-66
2022/04/01 09:44:09;;;;;;;6.10;3.70;;;;;;;14.47;28.05;98979.16;5091203;28;20475;-65
2022/04/01 09:46:43;;;;;;;5.65;3.67;;;;;;;13.99;28.70;98956.06;5091640;28;20068;-66
2022/04/01 09:49:09;;;;;;;5.00;3.58;;;;;;;13.85;29.34;98973.84;5073530;28;20406;-65
2022/04/01 09:51:35;;;;;;;5.85;3.53;;;;;;;13.72;29.08;98967.56;5125541;27;20507;-65
2022/04/01 09:54:03;;;;;;;4.45;3.10;;;;;;;13.73;29.20;98969.22;5091627;28;20127;-65
2022/04/01 09:56:43;;;;;;;4.53;3.20;;;;;;;13.85;29.29;98957.00;5108312;28;20043;-65
2022/04/01 09:59:10;;;;;;;6.25;3.72;;;;;;;13.54;29.12;98960.91;5108503;28;20081;-65
2022/04/01 10:01:39;;;;;;;5.32;3.67;;;;;;;13.73;29.75;98961.22;5074495;28;20046;-65
2022/04/01 10:04:05;;;;;;;6.65;4.13;;;;;;;13.63;29.66;98950.88;5090841;28;20393;-65
2022/04/01 10:06:33;;;;;;;5.35;3.47;;;;;;;13.80;29.40;98952.25;5091142;28;20082;-64
2022/04/01 10:09:01;;;;;;;7.70;4.43;;;;;;;14.35;28.52;98959.38;5108271;28;20059;-64
2022/04/01 10:11:27;;;;;;;6.50;4.32;;;;;;;14.76;27.91;98942.25;5090813;28;20120;-65
2022/04/01 10:13:53;;;;;;;6.85;3.80;;;;;;;15.41;26.61;98952.28;5108124;28;20047;-65
2022/04/01 10:16:20;;;;;;;4.93;3.50;;;;;;;16.03;25.87;98936.59;5074289;28;20088;-65
2022/04/01 10:18:47;;;;;;;7.05;3.83;;;;;;;16.29;25.36;98928.47;5091230;28;20497;-65
2022/04/01 10:21:18;;;;;;;6.28;3.63;;;;;;;16.60;24.91;98938.47;5090642;28;20512;-65
2022/04/01 10:23:55;;;;;;;6.28;4.07;;;;;;;16.74;24.51;98932.81;5090800;28;20067;-65
2022/04/01 10:26:22;;;;;;;6.88;4.80;;;;;;;16.71;24.79;98922.53;5074008;28;20047;-66
2022/04/01 10:28:51;;;;;;;9.35;5.13;;;;;;;16.61;24.68;98924.03;5108552;28;20535;-65
2022/04/01 10:31:19;;;;;;;8.00;4.38;;;;;;;16.40;24.75;98927.81;5108616;28;20055;-65
2022/04/01 10:33:44;;;;;;;8.20;4.60;;;;;;;16.13;24.87;98918.22;5109462;28;20058;-65
2022/04/01 10:36:31;;;;;;;9.02;4.63;;;;;;;16.01;24.97;98921.75;5091486;28;20048;-65
2022/04/01 10:39:05;;;;;;;6.15;4.20;;;;;;;15.89;25.60;98918.06;5074428;28;20214;-65
2022/04/01 10:41:32;;;;;;;6.13;4.18;;;;;;;16.05;25.12;98913.06;5108038;28;20047;-65
2022/04/01 10:44:00;;;;;;;6.45;4.28;;;;;;;16.55;24.97;98911.47;5107777;28;20525;-64
2022/04/01 10:46:27;;;;;;;9.55;4.60;;;;;;;16.92;24.42;98899.94;5090957;28;20043;-65
2022/04/01 10:52:23;;;;;;;8.82;4.47;;;;;;;16.83;23.64;98902.06;5094071;28;20131;-65
2022/04/01 10:55:02;;;;;;;5.95;4.18;;;;;;;16.37;24.40;98895.25;5073749;28;20058;-65
2022/04/01 10:57:30;;;;;;;6.90;4.40;;;;;;;16.62;24.27;98896.19;5090094;28;20066;-65
2022/04/01 11:00:07;;;;;;;8.43;4.63;;;;;;;17.71;22.89;98890.22;5108283;28;20043;-64
2022/04/01 11:02:34;;;;;;;6.85;4.07;;;;;;;18.35;21.89;98881.66;5111997;28;20138;-65
2022/04/01 11:05:30;;;;;;;4.47;3.35;;;;;;;19.00;20.63;98883.50;5112360;28;20134;-65
2022/04/01 11:08:20;;;;;;;7.60;3.65;;;;;;;19.01;20.19;98860.91;5112820;28;20050;-65
2022/04/01 11:11:12;;;;;;;4.95;3.45;;;;;;;19.42;19.80;98877.03;5094962;28;20054;-65
2022/04/01 11:13:38;;;;;;;4.38;3.30;;;;;;;19.60;19.51;98881.50;5094109;28;20469;-65
2022/04/01 11:16:14;;;;;;;5.25;3.33;;;;;;;20.07;18.85;98869.63;5112175;28;20130;-66
2022/04/01 11:19:18;;;;;;;6.97;3.70;;;;;;;19.82;19.24;98864.50;5094788;28;20071;-66
2022/04/01 11:21:47;;;;;;;5.47;4.30;;;;;;;19.83;18.95;98868.84;5077125;28;20047;-65
2022/04/01 11:24:22;;;;;;;4.93;3.70;;;;;;;19.33;19.16;98864.97;5093930;28;20397;-65
2022/04/01 11:26:49;;;;;;;3.90;3.25;;;;;;;18.36;19.89;98826.84;5094788;28;20062;-65
2022/04/01 11:29:20;;;;;;;5.32;3.65;;;;;;;18.48;19.72;98855.47;5093760;28;20488;-65
2022/04/01 11:31:48;;;;;;;7.03;3.90;;;;;;;18.46;20.04;98846.00;5095132;28;20476;-65
2022/04/01 11:34:14;;;;;;;7.38;3.75;;;;;;;18.12;20.04;98850.13;5094847;28;20486;-65
2022/04/01 11:36:42;;;;;;;6.22;3.45;;;;;;;17.95;20.28;98848.25;5093936;28;20096;-65
2022/04/01 11:39:10;;;;;;;4.70;3.42;;;;;;;17.57;20.64;98820.78;5111283;28;20043;-65
2022/04/01 11:41:51;;;;;;;4.55;3.40;;;;;;;17.50;20.71;98831.56;5111137;28;20084;-65
2022/04/01 11:44:17;;;;;;;6.75;3.70;;;;;;;16.94;21.24;98821.94;5111470;28;20412;-66
2022/04/01 11:46:51;;;;;;;5.97;3.95;;;;;;;16.49;21.57;98827.41;5094108;28;20044;-67
2022/04/01 11:49:17;;;;;;;5.47;3.22;;;;;;;15.82;22.28;98786.88;5094465;28;20051;-65
2022/04/01 11:51:43;;;;;;;4.80;3.53;;;;;;;15.63;22.28;98816.38;5077840;28;20086;-65
2022/04/01 11:54:10;;;;;;;5.47;3.60;;;;;;;15.02;22.94;98789.09;5093547;28;20043;-65
2022/04/01 11:56:36;;;;;;;7.68;3.75;;;;;;;14.81;23.61;98806.16;5108421;28;20046;-65
2022/04/01 11:59:03;;;;;;;5.68;3.80;;;;;;;14.67;24.00;98809.00;5075468;28;20154;-65